Aeroporto :
LOGIN :

Iscrizione | Disclaimer

   EN    FR    IT 

 










Sommario :    VFR   VFR Marginale   IFR   IFR Intensivo   IFR Molto Intensivo
Visibilità : 
Base nubi : 
>= 8 km
>= 3000ft
5 / 8 km
1000 / 3000 ft
1500m / 5 km
500 / 1000 ft
800 / 1500m
200 / 500 ft
< 800m
< 200 ft
Simboli :   Temporali  Nebbia  Neve Forte  Precipitazioni Forti  Vento > 20 kt
SIGMETs :   Varie  Temporali  Ghiacco  Turbolenza  Onda orograficha  Ceneri Vulcaniche






- Altitudine del aeroporto : 37 ft


EHVL - Vlieland Heliport

ULTIMO METAR :
  • 040655Z AUTO 14029KT 9999 FEW015 SCT047 BKN090 05/04 Q0977 BLU

METARs OBSOLETI :
  • 040640Z AUTO 14029KT 9999 SCT012 BKN014 BKN065 05/04 Q0977 GRN
  • 040633Z AUTO 14028KT 9999 FEW010 BKN015 OVC055 05/04 Q0977 WHT
  • 040625Z AUTO 14028KT 9999 FEW010 SCT046 BKN054 05/04 Q0977 BLU
  • 040610Z AUTO 14028KT 6000 -DZ FEW009 BKN011 BKN014 05/04 Q0977 GRN
  • 040555Z AUTO 14029KT 9999 FEW009 OVC013 05/04 Q0977 GRN
  • 040525Z AUTO 13027KT 9999 FEW008 SCT009 BKN012 05/04 Q0977 GRN
  • 040504Z AUTO 13026KT 9999 -DZ FEW008 BKN009 BKN010 05/04 Q0977 GRN
  • 040455Z AUTO 13027KT 9000 -DZRA FEW007 SCT008 BKN010 05/04 Q0977 REDZ GRN
  • 040438Z AUTO 13028KT 9000 DZRA FEW007 SCT009 BKN012 05/04 Q0977 GRN
  • 040425Z AUTO 13026KT 9999 DZ SCT008 BKN010 BKN016 05/04 Q0978 GRN

Previsioni scadute.



MetMap, La meteo Aeronautica in un colpo d'occhio ! - Copyright ORBIFLY Dicembre 2007 - Disclaimer

ORBIFLY MET'MAP TEAM :

Programmazione e sviluppo : Alexandra Zaïnal
Concezione : Baudouin d'Aumeries
Aiuto per la programmazione : Marc-Olivier Méhu
Supporto tecnico e logistico : Manuel Goepfert
Aiuto per la traduzione : Arnaldo La Scala

Contatto : metmap@orbifly.com




FONTI E CREDITI :

   NOAA